CheckWX is a tool to help pilots better visualize weather data.  It is not intended as a substitute for an official pre-flight weather briefing.

17:47:09 UTC

KPSF METAR
Pittsfield Municipal Airport
Pittsfield, Massachusetts, USA
Current

53 mins ago

KPSF 201654Z AUTO 31009KT 9SM BKN032 OVC042 M04/M11 A3033 RMK AO2 SNE1557B23E44 SLP289 P0000 T10391111
Observed
Feb-20 @ 16:54 UTC
Wind
  • 310° at 9 KTS
Visibility
9 SM
Flight Rules
VFR
Cloud Levels
  • Broken at 3,200' AGL
  • Overcast at 4,200' AGL
Temperature
-4°C / 25°F
Dewpoint
-11°C / 12°F
Humidity
59%
Altimeter
30.33" Hg
Pressure
1027.12 hPa
Current Rain
0.01"
Previous

1 hour ago

KPSF 201641Z AUTO 28009KT 6SM -SN BKN027 BKN036 OVC043 M05/M12 A3033 RMK AO2 SNE1557B23 P0000 T10501117
Observed
Feb-20 @ 16:41 UTC
Wind
  • 280° at 9 KTS
Visibility
6 SM
Flight Rules
MVFR
Conditions
Light Snow
Cloud Levels
  • Broken at 2,700' AGL
  • Broken at 3,600' AGL
  • Overcast at 4,300' AGL
Temperature
-5°C / 23°F
Dewpoint
-12°C / 10°F
Humidity
58%
Altimeter
30.33" Hg
Pressure
1027.12 hPa
Current Rain
0.01"
Previous

1 hour ago

KPSF 201632Z AUTO 32009KT 2 1/2SM -SN BKN028 OVC034 M05/M11 A3034 RMK AO2 VIS 1 3/4V4 SNE1557B23 P0000 T10501111
Observed
Feb-20 @ 16:32 UTC
Wind
  • 320° at 9 KTS
Visibility
2 1/2 SM
Flight Rules
IFR
Conditions
Light Snow
Cloud Levels
  • Broken at 2,800' AGL
  • Overcast at 3,400' AGL
Temperature
-5°C / 23°F
Dewpoint
-11°C / 12°F
Humidity
63%
Altimeter
30.34" Hg
Pressure
1027.42 hPa
Current Rain
0.01"